Time;durP1;ratioP1;P1;durP2;ratioP2;P2;SDS_P1;SDS_P2;PMS_P1;PMS_P2;Temp;Humidity;BMP_temperature;BMP_pressure;BME280_temperature;BME280_humidity;BME280_pressure;Samples;Min_cycle;Max_cycle;Signal;HPM_P1;HPM_P2
2021/12/21 00:00:01;;;;;;;24.50;7.68;;;-3.50;99.90;;;;;;5131542;27;20034;-70
2021/12/21 00:02:26;;;;;;;18.90;7.45;;;-3.70;99.90;;;;;;5133311;27;20019;-70
2021/12/21 00:04:52;;;;;;;23.75;9.20;;;-3.70;99.90;;;;;;5131952;27;20475;-69
2021/12/21 00:07:18;;;;;;;20.95;8.20;;;-3.70;99.90;;;;;;5132293;27;20504;-67
2021/12/21 00:09:43;;;;;;;23.90;8.90;;;-3.80;99.90;;;;;;5131700;27;20023;-67
2021/12/21 00:12:12;;;;;;;20.55;7.60;;;-3.80;99.90;;;;;;5131436;27;20042;-67
2021/12/21 00:14:59;;;;;;;23.27;8.50;;;-3.80;99.90;;;;;;5131682;27;20117;-66
2021/12/21 00:25:22;;;;;;;16.02;7.95;;;-4.00;99.90;;;;;;5130940;27;20038;-67
2021/12/21 00:27:51;;;;;;;24.25;8.55;;;-4.00;99.90;;;;;;5129127;27;20073;-68
2021/12/21 00:30:18;;;;;;;29.40;9.00;;;-4.00;99.90;;;;;;5131567;27;20051;-67
2021/12/21 00:32:45;;;;;;;18.75;7.70;;;-4.00;99.90;;;;;;5131373;27;20027;-68
2021/12/21 00:35:11;;;;;;;19.02;8.27;;;-4.00;99.90;;;;;;5125689;27;20039;-69
2021/12/21 00:37:41;;;;;;;20.02;8.55;;;-4.00;99.90;;;;;;5131933;27;20516;-69
2021/12/21 00:40:09;;;;;;;21.13;8.13;;;-4.10;99.90;;;;;;5129661;27;20102;-67
2021/12/21 00:42:35;;;;;;;23.80;9.48;;;-4.10;99.90;;;;;;5132095;27;20027;-70
2021/12/21 00:45:01;;;;;;;24.58;8.38;;;-4.10;99.90;;;;;;5131497;27;20478;-68
2021/12/21 00:47:26;;;;;;;24.65;8.75;;;-4.10;99.90;;;;;;5131594;27;20408;-68
2021/12/21 00:49:59;;;;;;;20.92;7.78;;;-4.10;99.90;;;;;;5131247;27;20035;-68
2021/12/21 00:52:25;;;;;;;21.35;7.68;;;-4.10;99.90;;;;;;5131419;27;20361;-68
2021/12/21 00:54:51;;;;;;;22.63;7.90;;;-4.10;99.90;;;;;;5130997;27;20109;-67
2021/12/21 00:57:17;;;;;;;24.73;8.20;;;-4.10;99.90;;;;;;5130276;27;20424;-67
2021/12/21 00:59:43;;;;;;;16.92;7.93;;;-4.10;99.90;;;;;;5130583;27;20038;-67
2021/12/21 01:02:09;;;;;;;19.60;7.75;;;-4.10;99.90;;;;;;5131911;27;20364;-68
2021/12/21 01:04:40;;;;;;;21.10;8.63;;;-4.10;99.90;;;;;;5130713;27;20031;-70
2021/12/21 01:07:33;;;;;;;22.17;7.40;;;-4.10;99.90;;;;;;5128971;27;20030;-69
2021/12/21 01:13:11;;;;;;;25.95;8.00;;;-4.00;99.90;;;;;;5130366;27;20520;-69
2021/12/21 01:18:26;;;;;;;19.75;7.45;;;-4.10;99.90;;;;;;5133297;27;20031;-67
2021/12/21 01:21:06;;;;;;;24.83;7.20;;;-4.10;99.90;;;;;;5132436;27;20211;-67
2021/12/21 01:28:39;;;;;;;26.58;8.02;;;-4.20;99.90;;;;;;5132836;27;20148;-67
2021/12/21 01:39:58;;;;;;;23.48;8.25;;;-4.10;99.90;;;;;;5108377;28;20063;-67
2021/12/21 01:50:33;;;;;;;23.00;9.23;;;-4.20;99.90;;;;;;5132845;27;20502;-67
2021/12/21 01:52:59;;;;;;;19.38;8.45;;;-4.20;99.90;;;;;;5131581;27;20023;-68
2021/12/21 01:55:24;;;;;;;19.48;8.25;;;-4.20;99.90;;;;;;5132587;27;20034;-67
2021/12/21 01:57:50;;;;;;;20.13;8.27;;;-4.20;99.90;;;;;;5132170;27;20033;-68
2021/12/21 02:00:17;;;;;;;26.02;9.00;;;-4.20;99.90;;;;;;5115105;27;20027;-68
2021/12/21 02:02:42;;;;;;;23.25;8.00;;;-4.20;99.90;;;;;;5132048;27;20035;-68
2021/12/21 02:05:08;;;;;;;22.60;8.23;;;-4.20;99.90;;;;;;5132454;27;20035;-68
2021/12/21 02:07:34;;;;;;;25.85;8.75;;;-4.20;99.90;;;;;;5131992;27;20361;-67
2021/12/21 02:10:00;;;;;;;24.45;8.90;;;-4.10;99.90;;;;;;5130170;27;20031;-67
2021/12/21 02:12:26;;;;;;;24.67;8.93;;;-4.20;99.90;;;;;;5132570;27;20460;-67
2021/12/21 02:14:58;;;;;;;23.40;8.75;;;-4.10;99.90;;;;;;5131857;28;20038;-67
2021/12/21 02:20:36;;;;;;;30.92;9.00;;;-4.20;99.90;;;;;;5132494;28;20111;-67
2021/12/21 02:23:10;;;;;;;36.95;9.65;;;-4.20;99.90;;;;;;5132102;28;20087;-67
2021/12/21 02:28:45;;;;;;;23.45;8.70;;;-4.10;99.90;;;;;;5132474;28;20098;-67
2021/12/21 02:31:09;;;;;;;21.90;9.05;;;-4.10;99.90;;;;;;5131781;28;20027;-67
2021/12/21 02:33:35;;;;;;;20.60;9.38;;;-4.10;99.90;;;;;;5132549;28;20034;-67
2021/12/21 02:36:02;;;;;;;22.98;9.25;;;-4.10;99.90;;;;;;5131747;27;20027;-67
2021/12/21 02:38:28;;;;;;;39.88;10.45;;;-4.10;99.90;;;;;;5132359;27;20023;-67
2021/12/21 02:40:55;;;;;;;26.67;10.05;;;-4.20;99.90;;;;;;5131116;27;20114;-68
2021/12/21 02:43:21;;;;;;;22.25;10.40;;;-4.20;99.90;;;;;;5132789;27;20030;-67
2021/12/21 02:45:47;;;;;;;23.73;9.98;;;-4.20;99.90;;;;;;5131276;27;20476;-67
2021/12/21 02:48:13;;;;;;;25.58;9.82;;;-4.20;99.90;;;;;;5131304;27;20488;-67
2021/12/21 02:50:40;;;;;;;22.73;9.23;;;-4.10;99.90;;;;;;5135377;27;20031;-69
2021/12/21 02:53:07;;;;;;;19.73;9.50;;;-4.10;99.90;;;;;;5135685;27;20050;-67
2021/12/21 02:55:33;;;;;;;17.13;8.68;;;-4.20;99.90;;;;;;5133089;27;20394;-67
2021/12/21 02:57:58;;;;;;;26.08;9.32;;;-4.20;99.90;;;;;;5134997;27;20031;-67
2021/12/21 03:00:29;;;;;;;19.15;8.45;;;-4.20;99.90;;;;;;5135212;27;20035;-67
2021/12/21 03:02:55;;;;;;;18.75;8.88;;;-4.20;99.90;;;;;;5135194;27;20030;-67
2021/12/21 03:05:21;;;;;;;20.60;7.97;;;-4.30;99.90;;;;;;5135763;27;20043;-67
2021/12/21 03:10:28;;;;;;;24.50;7.50;;;-4.30;99.90;;;;;;5135797;27;20491;-67
2021/12/21 03:15:38;;;;;;;26.13;8.20;;;-4.30;99.90;;;;;;5135469;27;20046;-69
2021/12/21 03:18:04;;;;;;;22.45;8.43;;;-4.30;99.90;;;;;;5135238;27;20386;-68
2021/12/21 03:20:30;;;;;;;19.08;8.18;;;-4.40;99.90;;;;;;5135589;27;20019;-68
2021/12/21 03:22:56;;;;;;;19.73;8.40;;;-4.40;99.90;;;;;;5135070;27;20050;-68
2021/12/21 03:25:22;;;;;;;24.33;9.68;;;-4.40;99.90;;;;;;5135525;27;20098;-68
2021/12/21 03:27:47;;;;;;;23.67;8.73;;;-4.40;99.90;;;;;;5134450;27;20024;-68
2021/12/21 03:30:15;;;;;;;20.15;8.50;;;-4.40;99.90;;;;;;5135673;27;20031;-67
2021/12/21 03:32:41;;;;;;;23.10;8.35;;;-4.40;99.90;;;;;;5135203;27;20028;-69
2021/12/21 03:35:08;;;;;;;22.55;8.93;;;-4.50;99.90;;;;;;5135327;27;20030;-67
2021/12/21 03:37:34;;;;;;;21.95;8.60;;;-4.50;99.90;;;;;;5135407;27;20102;-67
2021/12/21 03:40:02;;;;;;;23.08;8.70;;;-4.50;99.90;;;;;;5134093;27;20030;-67
2021/12/21 03:42:28;;;;;;;23.90;7.95;;;-4.50;99.90;;;;;;5135059;27;20098;-68
2021/12/21 03:44:53;;;;;;;23.38;8.85;;;-4.50;99.90;;;;;;5134538;27;20111;-67
2021/12/21 03:47:22;;;;;;;21.38;8.00;;;-4.60;99.90;;;;;;5135291;27;20085;-68
2021/12/21 03:49:53;;;;;;;22.95;8.57;;;-4.60;99.90;;;;;;5133785;27;20030;-68
2021/12/21 03:52:21;;;;;;;22.02;7.72;;;-4.60;99.90;;;;;;5134384;27;20467;-67
2021/12/21 03:54:51;;;;;;;21.50;8.05;;;-4.50;99.90;;;;;;5134015;27;20066;-68
2021/12/21 03:57:17;;;;;;;18.42;7.45;;;-4.50;99.90;;;;;;5134609;27;20027;-67
2021/12/21 03:59:44;;;;;;;24.40;8.02;;;-4.50;99.90;;;;;;5133852;27;20026;-70
2021/12/21 04:02:12;;;;;;;21.02;7.80;;;-4.50;99.90;;;;;;5133594;27;20116;-68
2021/12/21 04:04:38;;;;;;;20.38;8.50;;;-4.40;99.90;;;;;;5134599;27;20106;-67
2021/12/21 04:07:05;;;;;;;21.58;8.00;;;-4.50;99.90;;;;;;5115716;27;20079;-67
2021/12/21 04:09:31;;;;;;;19.08;8.02;;;-4.50;99.90;;;;;;5134715;27;20083;-68
2021/12/21 04:11:56;;;;;;;23.45;9.10;;;-4.60;99.90;;;;;;5133927;27;20102;-67
2021/12/21 04:14:22;;;;;;;33.58;9.23;;;-4.60;99.90;;;;;;5134659;27;20434;-68
2021/12/21 04:16:49;;;;;;;19.48;8.00;;;-4.50;99.90;;;;;;5133809;27;20023;-68
2021/12/21 04:19:14;;;;;;;23.75;8.02;;;-4.50;99.90;;;;;;5134001;27;20035;-67
2021/12/21 04:21:41;;;;;;;23.67;9.38;;;-4.50;99.90;;;;;;5134365;27;20034;-69
2021/12/21 04:24:07;;;;;;;25.17;8.65;;;-4.50;99.90;;;;;;5133974;27;20031;-68
2021/12/21 04:26:32;;;;;;;24.40;9.30;;;-4.50;99.90;;;;;;5134244;27;20029;-67
2021/12/21 04:28:58;;;;;;;16.73;8.15;;;-4.50;99.90;;;;;;5132087;27;20023;-68
2021/12/21 04:31:24;;;;;;;19.83;8.90;;;-4.60;99.90;;;;;;5133580;27;20107;-68
2021/12/21 04:33:50;;;;;;;24.42;8.70;;;-4.60;99.90;;;;;;5132653;27;20043;-68
2021/12/21 04:36:16;;;;;;;23.65;8.07;;;-4.60;99.90;;;;;;5131405;27;20045;-68
2021/12/21 04:38:46;;;;;;;19.00;8.43;;;-4.60;99.90;;;;;;5133158;27;20019;-70
2021/12/21 04:41:22;;;;;;;23.30;8.70;;;-4.70;99.90;;;;;;5132497;27;20525;-69
2021/12/21 04:43:48;;;;;;;30.15;10.70;;;-4.70;99.90;;;;;;5132081;27;20041;-69
2021/12/21 04:46:14;;;;;;;19.95;8.27;;;-4.70;99.90;;;;;;5133189;27;20030;-68
2021/12/21 04:48:40;;;;;;;20.08;8.88;;;-4.70;99.90;;;;;;5131973;27;20051;-67
2021/12/21 04:51:06;;;;;;;26.95;9.25;;;-4.80;99.90;;;;;;5131817;27;20038;-68
2021/12/21 04:53:32;;;;;;;23.70;9.18;;;-4.80;99.90;;;;;;5134311;27;20067;-68
2021/12/21 04:55:58;;;;;;;24.10;9.85;;;-4.80;99.90;;;;;;5132482;27;20031;-68
2021/12/21 04:58:24;;;;;;;20.33;9.10;;;-4.90;99.90;;;;;;5133922;27;20023;-68
2021/12/21 05:00:50;;;;;;;24.17;9.23;;;-4.90;99.90;;;;;;5129609;27;20027;-68
2021/12/21 05:03:16;;;;;;;22.52;10.25;;;-4.70;99.90;;;;;;5133461;27;20034;-68
2021/12/21 05:05:42;;;;;;;30.98;8.55;;;-4.90;99.90;;;;;;5133170;27;20110;-70
2021/12/21 05:08:18;;;;;;;21.25;8.98;;;-5.00;99.90;;;;;;5132993;27;20503;-68
2021/12/21 05:10:53;;;;;;;22.80;8.15;;;-4.90;99.90;;;;;;5125256;27;20106;-70
2021/12/21 05:13:21;;;;;;;24.80;10.15;;;-5.00;99.90;;;;;;5133512;27;20023;-69
2021/12/21 05:15:47;;;;;;;27.85;9.75;;;-5.00;99.90;;;;;;5131350;27;20479;-69
2021/12/21 05:18:14;;;;;;;23.17;10.43;;;-5.00;99.90;;;;;;5132871;27;20463;-69
2021/12/21 05:20:41;;;;;;;23.00;8.88;;;-5.00;99.90;;;;;;5131983;27;20031;-69
2021/12/21 05:23:08;;;;;;;24.92;8.60;;;-5.00;99.90;;;;;;5132578;27;20486;-69
2021/12/21 05:25:34;;;;;;;23.40;8.75;;;-5.00;99.90;;;;;;5139361;27;20371;-69
2021/12/21 05:28:00;;;;;;;20.55;8.38;;;-5.00;99.90;;;;;;5152954;27;20071;-68
2021/12/21 05:30:27;;;;;;;20.73;9.10;;;-5.10;99.90;;;;;;5136723;27;20041;-69
2021/12/21 05:32:54;;;;;;;20.17;8.95;;;-5.00;99.90;;;;;;5131094;27;20035;-69
2021/12/21 05:35:20;;;;;;;22.77;10.05;;;-5.10;99.90;;;;;;5132346;27;20035;-68
2021/12/21 05:37:48;;;;;;;21.05;7.88;;;-5.10;99.90;;;;;;5133402;27;20034;-70
2021/12/21 05:40:16;;;;;;;27.70;10.00;;;-5.10;99.90;;;;;;5145043;27;20026;-68
2021/12/21 05:42:47;;;;;;;23.48;8.85;;;-5.00;99.90;;;;;;5153826;27;20026;-68
2021/12/21 05:45:17;;;;;;;27.40;8.80;;;-5.00;99.90;;;;;;5135383;27;20026;-68
2021/12/21 05:47:43;;;;;;;26.35;9.20;;;-5.00;99.90;;;;;;5153912;27;20051;-68
2021/12/21 05:50:16;;;;;;;29.00;9.15;;;-5.00;99.90;;;;;;5141868;27;20035;-69
2021/12/21 05:52:41;;;;;;;24.50;8.38;;;-5.00;99.90;;;;;;5132876;27;20057;-68
2021/12/21 05:55:08;;;;;;;23.27;9.68;;;-5.00;99.90;;;;;;5131923;27;20034;-68
2021/12/21 05:57:34;;;;;;;24.33;9.60;;;-4.90;99.90;;;;;;5135393;27;20078;-69
2021/12/21 06:00:00;;;;;;;25.38;8.60;;;-4.90;99.90;;;;;;5142102;27;20031;-68
2021/12/21 06:02:25;;;;;;;20.67;8.05;;;-4.90;99.90;;;;;;5132292;27;20027;-68
2021/12/21 06:04:51;;;;;;;21.55;8.45;;;-4.90;99.90;;;;;;5128838;27;20035;-68
2021/12/21 06:07:17;;;;;;;23.88;10.05;;;-5.00;99.90;;;;;;5131313;27;20084;-68
2021/12/21 06:09:45;;;;;;;21.33;9.27;;;-5.00;99.90;;;;;;5114662;27;20084;-69
2021/12/21 06:12:29;;;;;;;19.85;8.23;;;-5.00;99.90;;;;;;5128445;27;20025;-69
2021/12/21 06:15:25;;;;;;;21.70;8.40;;;-5.00;99.90;;;;;;5128363;28;20082;-69
2021/12/21 06:24:47;;;;;;;19.63;7.88;;;-5.20;99.90;;;;;;5127807;27;20066;-70
2021/12/21 06:26:04;;;;;;;19.98;8.90;;;-5.20;99.90;;;;;;5121420;27;20035;-67
2021/12/21 06:28:31;;;;;;;24.25;9.48;;;-5.30;99.90;;;;;;5133786;27;20360;-69
2021/12/21 06:30:57;;;;;;;21.67;8.88;;;-5.30;99.90;;;;;;5117039;27;20038;-69
2021/12/21 06:33:22;;;;;;;23.58;8.27;;;-5.30;99.90;;;;;;5135974;27;20031;-69
2021/12/21 06:35:49;;;;;;;19.15;8.77;;;-5.30;99.90;;;;;;5131367;27;20396;-70
2021/12/21 06:38:15;;;;;;;18.45;7.75;;;-5.30;99.90;;;;;;5139628;27;20036;-67
2021/12/21 06:40:40;;;;;;;22.15;8.40;;;-5.30;99.90;;;;;;5152402;27;20043;-70
2021/12/21 06:43:11;;;;;;;19.52;8.30;;;-5.30;99.90;;;;;;5156204;27;20600;-70
2021/12/21 06:53:38;;;;;;;25.25;8.85;;;-5.30;99.90;;;;;;5153158;27;20030;-71
2021/12/21 06:56:05;;;;;;;31.67;9.98;;;-5.30;99.90;;;;;;5137431;27;20459;-71
2021/12/21 06:58:32;;;;;;;21.60;8.68;;;-5.30;99.90;;;;;;5142661;27;21190;-70
2021/12/21 07:00:58;;;;;;;32.22;10.60;;;-5.30;99.90;;;;;;5134976;27;20027;-70
2021/12/21 07:03:24;;;;;;;25.85;9.63;;;-5.30;99.90;;;;;;5136546;27;20034;-70
2021/12/21 07:05:51;;;;;;;23.48;8.43;;;-5.30;99.90;;;;;;5116584;27;20035;-71
2021/12/21 07:08:22;;;;;;;26.48;9.52;;;-5.30;99.90;;;;;;5116737;27;20110;-70
2021/12/21 07:10:56;;;;;;;17.65;8.23;;;-5.30;99.90;;;;;;5135475;27;20080;-72
2021/12/21 07:18:51;;;;;;;23.98;9.00;;;-5.20;99.90;;;;;;5134847;27;20053;-70
2021/12/21 07:21:17;;;;;;;21.35;9.60;;;-5.20;99.90;;;;;;5135945;27;20023;-69
2021/12/21 07:23:42;;;;;;;20.63;9.05;;;-5.20;99.90;;;;;;5134259;27;20031;-70
2021/12/21 07:26:08;;;;;;;26.77;9.80;;;-5.20;99.90;;;;;;5134774;27;20016;-72
2021/12/21 07:28:34;;;;;;;21.73;9.40;;;-5.20;99.90;;;;;;5135451;27;20102;-72
2021/12/21 07:30:59;;;;;;;28.33;10.52;;;-5.10;99.90;;;;;;5134978;27;20468;-70
2021/12/21 07:33:25;;;;;;;23.33;9.88;;;-5.20;99.90;;;;;;5130399;27;20715;-72
2021/12/21 07:35:51;;;;;;;26.65;9.90;;;-5.10;99.90;;;;;;5113314;27;20081;-74
2021/12/21 07:38:17;;;;;;;23.75;9.20;;;-5.10;99.90;;;;;;5134220;27;20076;-73
2021/12/21 07:40:43;;;;;;;22.10;10.25;;;-5.00;99.90;;;;;;5133933;27;20034;-71
2021/12/21 07:43:09;;;;;;;22.58;10.05;;;-5.00;99.90;;;;;;5134396;27;20020;-70
2021/12/21 07:45:35;;;;;;;24.02;11.05;;;-5.00;99.90;;;;;;5134677;27;20111;-71
2021/12/21 07:48:01;;;;;;;29.67;10.60;;;-5.00;99.90;;;;;;5140222;27;20083;-70
2021/12/21 07:50:27;;;;;;;23.05;9.55;;;-4.90;99.90;;;;;;5134411;27;20032;-70
2021/12/21 07:52:54;;;;;;;23.35;9.52;;;-4.90;99.90;;;;;;5133799;27;20039;-71
2021/12/21 07:55:20;;;;;;;18.63;8.52;;;-4.80;99.90;;;;;;5134855;27;20378;-69
2021/12/21 07:57:46;;;;;;;32.85;11.43;;;-4.80;99.90;;;;;;5116922;27;20024;-70
2021/12/21 08:00:13;;;;;;;27.83;10.32;;;-4.70;99.90;;;;;;5115361;27;20129;-69
2021/12/21 08:02:40;;;;;;;24.13;10.32;;;-4.70;99.90;;;;;;5121888;27;20027;-69
2021/12/21 08:05:08;;;;;;;22.63;9.85;;;-4.60;99.90;;;;;;5130981;27;20035;-69
2021/12/21 08:07:39;;;;;;;21.20;10.50;;;-4.60;99.90;;;;;;5133453;27;20030;-69
2021/12/21 08:10:18;;;;;;;18.45;9.40;;;-4.50;99.90;;;;;;5129453;27;20030;-69
2021/12/21 08:12:45;;;;;;;22.38;10.07;;;-4.50;99.90;;;;;;5133306;27;20034;-69
2021/12/21 08:15:10;;;;;;;19.83;9.43;;;-4.50;99.90;;;;;;5130513;27;20040;-68
2021/12/21 08:17:36;;;;;;;19.60;9.18;;;-4.50;99.90;;;;;;5126867;27;20098;-69
2021/12/21 08:20:02;;;;;;;23.95;9.60;;;-4.50;99.90;;;;;;5133684;27;20031;-69
2021/12/21 08:22:28;;;;;;;24.85;10.13;;;-4.50;99.90;;;;;;5133892;27;20072;-70
2021/12/21 08:24:53;;;;;;;26.67;10.63;;;-4.50;99.90;;;;;;5132823;27;20031;-69
2021/12/21 08:27:19;;;;;;;21.95;9.95;;;-4.50;99.90;;;;;;5128346;27;20470;-69
2021/12/21 08:29:45;;;;;;;22.60;11.10;;;-4.50;99.90;;;;;;5133579;27;20054;-69
2021/12/21 08:32:11;;;;;;;24.80;10.63;;;-4.40;99.90;;;;;;5126466;27;20076;-69
2021/12/21 08:34:37;;;;;;;26.77;11.48;;;-4.40;99.90;;;;;;5133191;27;20032;-69
2021/12/21 08:37:03;;;;;;;20.45;11.10;;;-4.30;99.90;;;;;;5132055;27;20442;-69
2021/12/21 08:39:37;;;;;;;31.25;12.95;;;-4.30;99.90;;;;;;5132758;27;20031;-69
2021/12/21 08:42:04;;;;;;;24.25;11.20;;;-4.20;99.90;;;;;;5132823;27;20031;-69
2021/12/21 08:44:30;;;;;;;25.48;10.98;;;-4.00;99.90;;;;;;5131353;27;20136;-69
2021/12/21 08:46:57;;;;;;;25.27;10.82;;;-3.90;99.90;;;;;;5132079;27;20043;-69
2021/12/21 08:49:27;;;;;;;28.20;11.88;;;-3.80;99.90;;;;;;5133457;27;20039;-69
2021/12/21 08:51:54;;;;;;;22.90;11.80;;;-3.80;99.90;;;;;;5132172;27;20095;-69
2021/12/21 08:54:20;;;;;;;25.67;11.65;;;-3.70;99.90;;;;;;5133637;27;20391;-68
2021/12/21 08:56:48;;;;;;;26.60;12.77;;;-3.70;99.90;;;;;;5125112;27;20027;-69
2021/12/21 08:59:15;;;;;;;26.08;11.70;;;-3.60;99.90;;;;;;5113133;27;20386;-68
2021/12/21 09:01:42;;;;;;;22.40;11.48;;;-3.60;99.90;;;;;;5133360;27;20023;-68
2021/12/21 09:04:08;;;;;;;30.02;13.02;;;-3.50;99.90;;;;;;5132503;27;20058;-68
2021/12/21 09:06:34;;;;;;;28.73;13.40;;;-3.50;99.90;;;;;;5132352;27;20423;-70
2021/12/21 09:08:59;;;;;;;23.48;11.65;;;-3.40;99.90;;;;;;5117304;27;20028;-68
2021/12/21 09:11:25;;;;;;;32.25;13.65;;;-3.30;99.90;;;;;;5132691;27;20382;-68
2021/12/21 09:13:51;;;;;;;36.05;13.07;;;-3.30;99.90;;;;;;5114678;27;20433;-70
2021/12/21 09:16:17;;;;;;;28.30;12.55;;;-3.20;99.90;;;;;;5132763;27;20027;-68
2021/12/21 09:18:44;;;;;;;25.95;11.18;;;-3.10;99.90;;;;;;5133167;27;20032;-68
2021/12/21 09:21:10;;;;;;;25.02;12.18;;;-3.10;99.90;;;;;;5131336;27;20038;-68
2021/12/21 09:23:35;;;;;;;31.92;13.77;;;-3.00;99.90;;;;;;5132088;27;20027;-68
2021/12/21 09:26:01;;;;;;;25.52;11.77;;;-2.90;99.90;;;;;;5129891;27;20027;-69
2021/12/21 09:28:27;;;;;;;31.55;13.18;;;-2.90;99.90;;;;;;5115935;27;20031;-69
2021/12/21 09:30:52;;;;;;;23.92;12.07;;;-2.80;99.90;;;;;;5132288;27;20027;-70
2021/12/21 09:33:18;;;;;;;23.77;12.48;;;-2.70;99.90;;;;;;5132469;27;20383;-68
2021/12/21 09:35:44;;;;;;;25.73;11.75;;;-2.60;99.90;;;;;;5132760;27;20038;-68
2021/12/21 09:38:10;;;;;;;28.48;13.02;;;-2.60;99.90;;;;;;5132377;27;20031;-69
2021/12/21 09:40:39;;;;;;;28.50;11.60;;;-2.50;99.90;;;;;;5132363;27;20033;-68
2021/12/21 09:43:11;;;;;;;28.38;11.75;;;-2.50;99.90;;;;;;5131941;27;20052;-68
2021/12/21 09:45:38;;;;;;;28.15;12.52;;;-2.30;99.90;;;;;;5131081;27;20031;-67
2021/12/21 09:48:06;;;;;;;22.02;13.18;;;-2.30;99.90;;;;;;5131389;27;20051;-68
2021/12/21 09:50:33;;;;;;;21.10;11.25;;;-2.20;99.90;;;;;;5132412;27;20039;-68
2021/12/21 09:52:58;;;;;;;29.30;12.32;;;-2.10;99.90;;;;;;5118194;27;20077;-71
2021/12/21 09:55:24;;;;;;;34.08;12.20;;;-2.10;99.90;;;;;;5112187;28;20036;-70
2021/12/21 09:57:52;;;;;;;27.58;12.80;;;-2.00;99.90;;;;;;5118714;27;20027;-69
2021/12/21 10:00:21;;;;;;;24.58;11.68;;;-1.90;99.90;;;;;;5130505;27;20476;-69
2021/12/21 10:02:47;;;;;;;26.98;11.90;;;-1.90;99.90;;;;;;5130262;27;20036;-69
2021/12/21 10:05:18;;;;;;;22.63;11.98;;;-1.80;99.90;;;;;;5130941;27;20486;-69
2021/12/21 10:07:53;;;;;;;23.50;11.18;;;-1.70;99.90;;;;;;5132116;27;20019;-69
2021/12/21 10:10:21;;;;;;;23.10;10.98;;;-1.60;99.90;;;;;;5131765;27;20027;-69
2021/12/21 10:12:47;;;;;;;27.23;12.50;;;-1.50;99.90;;;;;;5132145;27;20034;-69
2021/12/21 10:15:20;;;;;;;29.10;11.85;;;-1.50;99.90;;;;;;5131151;27;20035;-69
2021/12/21 10:17:58;;;;;;;25.27;11.65;;;-1.40;99.90;;;;;;5108563;28;20445;-69
2021/12/21 10:20:39;;;;;;;25.00;11.82;;;-1.40;99.90;;;;;;5121287;28;20032;-70
2021/12/21 10:23:16;;;;;;;23.05;10.00;;;-1.20;99.90;;;;;;5132505;28;20035;-69
2021/12/21 10:25:43;;;;;;;18.00;9.40;;;-1.20;99.90;;;;;;5132948;28;20032;-69
2021/12/21 10:28:09;;;;;;;16.83;9.70;;;-1.10;99.90;;;;;;5130629;28;20560;-69
2021/12/21 10:30:50;;;;;;;26.10;10.55;;;-1.10;99.90;;;;;;5133016;28;20102;-69
2021/12/21 10:33:16;;;;;;;17.73;10.05;;;-1.00;99.90;;;;;;5132448;28;20332;-69
2021/12/21 10:35:42;;;;;;;19.38;9.65;;;-0.90;99.90;;;;;;5132505;28;20035;-69
2021/12/21 10:38:07;;;;;;;18.33;9.23;;;-0.90;99.90;;;;;;5131459;28;20478;-69
2021/12/21 10:40:33;;;;;;;19.05;9.60;;;-0.90;99.90;;;;;;5132259;28;20464;-69
2021/12/21 10:43:05;;;;;;;21.63;8.98;;;-0.80;99.90;;;;;;5131579;28;20073;-69
2021/12/21 10:45:35;;;;;;;22.02;9.35;;;-0.70;99.90;;;;;;5131598;27;20040;-69
2021/12/21 10:48:03;;;;;;;18.90;8.70;;;-0.60;99.90;;;;;;5131424;27;20052;-68
2021/12/21 10:50:32;;;;;;;17.65;8.02;;;-0.60;99.90;;;;;;5132357;27;20052;-68
2021/12/21 10:52:58;;;;;;;25.10;8.50;;;-0.50;99.90;;;;;;5131553;27;20110;-69
2021/12/21 10:55:30;;;;;;;18.45;7.85;;;-0.50;99.90;;;;;;5132252;28;20063;-68
2021/12/21 10:58:09;;;;;;;17.92;7.32;;;-0.40;99.90;;;;;;5131732;27;20028;-68
2021/12/21 11:00:38;;;;;;;18.08;7.18;;;-0.30;99.90;;;;;;5132053;27;20472;-68
2021/12/21 11:03:04;;;;;;;14.93;7.32;;;-0.10;99.90;;;;;;5126082;27;20028;-68
2021/12/21 11:05:30;;;;;;;16.63;7.38;;;;;;;;;;5129524;28;20380;-69
2021/12/21 11:08:04;;;;;;;19.35;8.55;;;;;;;;;;5114670;28;20023;-68
2021/12/21 11:10:34;;;;;;;20.95;7.20;;;0.10;99.90;;;;;;5132321;27;20024;-68
2021/12/21 11:13:05;;;;;;;15.07;7.22;;;0.20;99.90;;;;;;5135981;27;20057;-69
2021/12/21 11:15:33;;;;;;;15.88;6.13;;;0.20;99.90;;;;;;5134905;27;20035;-68
2021/12/21 11:18:03;;;;;;;12.93;6.50;;;0.30;99.90;;;;;;5134606;27;20407;-69
2021/12/21 11:20:29;;;;;;;19.15;6.88;;;0.30;99.90;;;;;;5136134;27;20034;-69
2021/12/21 11:22:56;;;;;;;17.08;6.45;;;0.40;99.90;;;;;;5136055;27;20035;-69
2021/12/21 11:25:23;;;;;;;20.23;8.60;;;0.40;99.90;;;;;;5135983;27;20028;-69
2021/12/21 11:27:50;;;;;;;18.77;7.25;;;0.50;99.90;;;;;;5135174;27;20102;-69
2021/12/21 11:30:20;;;;;;;14.57;7.35;;;0.50;99.90;;;;;;5135092;27;20109;-70
2021/12/21 11:32:49;;;;;;;21.58;8.00;;;0.60;99.90;;;;;;5136293;27;20528;-69
2021/12/21 11:37:59;;;;;;;12.02;6.55;;;0.80;99.90;;;;;;5127203;27;20031;-70
2021/12/21 11:40:28;;;;;;;13.27;6.32;;;0.80;99.90;;;;;;5133311;27;20031;-70
2021/12/21 11:43:16;;;;;;;12.97;6.87;;;0.70;99.90;;;;;;5114990;28;20020;-69
2021/12/21 11:45:50;;;;;;;12.75;6.75;;;0.70;99.90;;;;;;5116356;27;20320;-70
2021/12/21 11:48:25;;;;;;;10.98;5.38;;;0.80;99.90;;;;;;5134842;27;20047;-70
2021/12/21 11:50:51;;;;;;;13.38;6.20;;;0.80;99.90;;;;;;5135093;27;20105;-70
2021/12/21 11:53:19;;;;;;;12.10;5.93;;;0.80;99.90;;;;;;5118376;27;20027;-72
2021/12/21 11:55:49;;;;;;;15.30;6.75;;;0.80;99.90;;;;;;5134891;27;20062;-73
2021/12/21 11:58:27;;;;;;;10.55;5.30;;;0.90;99.90;;;;;;5116656;27;20028;-72
2021/12/21 12:01:02;;;;;;;14.80;5.32;;;1.00;99.90;;;;;;5114730;28;20188;-73
2021/12/21 12:03:30;;;;;;;10.00;5.47;;;1.00;99.90;;;;;;5114255;28;20026;-72
2021/12/21 12:06:07;;;;;;;9.98;4.72;;;1.10;99.90;;;;;;5127773;27;20039;-73
2021/12/21 12:08:58;;;;;;;11.00;5.68;;;1.10;99.90;;;;;;5123331;27;20035;-74
2021/12/21 12:11:39;;;;;;;13.68;4.85;;;1.20;99.90;;;;;;5134241;27;20537;-70
2021/12/21 12:14:14;;;;;;;10.00;3.88;;;1.30;99.90;;;;;;5134373;27;20042;-71
2021/12/21 12:16:56;;;;;;;10.13;4.13;;;1.40;99.90;;;;;;5136165;27;20037;-70
2021/12/21 12:19:30;;;;;;;10.25;4.40;;;1.50;99.90;;;;;;5133251;27;20043;-71
2021/12/21 12:22:02;;;;;;;9.38;4.32;;;1.50;99.90;;;;;;5133250;27;20027;-70
2021/12/21 12:24:56;;;;;;;11.38;4.70;;;1.50;99.90;;;;;;5120455;27;20375;-71
2021/12/21 12:27:28;;;;;;;8.52;4.20;;;1.50;99.90;;;;;;5130798;27;20206;-70
2021/12/21 12:29:58;;;;;;;10.55;3.88;;;1.70;99.90;;;;;;5132969;27;20031;-70
2021/12/21 12:32:38;;;;;;;13.30;4.25;;;1.60;99.90;;;;;;5133555;27;20507;-70
2021/12/21 12:35:16;;;;;;;8.73;4.30;;;1.60;99.90;;;;;;5133563;27;20134;-71
2021/12/21 12:37:58;;;;;;;9.07;3.85;;;1.60;99.90;;;;;;5132969;27;20023;-72
2021/12/21 12:40:28;;;;;;;10.32;3.97;;;1.60;99.90;;;;;;5126120;27;20023;-72
2021/12/21 12:43:01;;;;;;;7.97;4.13;;;1.60;99.90;;;;;;5127668;27;20023;-72
2021/12/21 12:45:39;;;;;;;8.82;4.03;;;1.70;99.90;;;;;;5134777;27;20027;-71
2021/12/21 12:48:42;;;;;;;8.25;4.05;;;1.80;99.90;;;;;;5133036;27;20142;-71
2021/12/21 12:51:10;;;;;;;8.40;3.45;;;1.80;99.90;;;;;;5108671;28;20044;-71
2021/12/21 12:53:40;;;;;;;7.65;4.28;;;1.80;99.90;;;;;;5132255;27;20015;-71
2021/12/21 12:56:07;;;;;;;16.02;4.72;;;1.80;99.90;;;;;;5132452;27;20471;-71
2021/12/21 12:58:35;;;;;;;8.13;3.40;;;2.00;99.90;;;;;;5133639;27;20114;-71
2021/12/21 13:01:12;;;;;;;8.48;3.50;;;2.00;99.90;;;;;;5133626;27;20031;-71
2021/12/21 13:03:41;;;;;;;6.80;3.40;;;2.00;99.90;;;;;;5125206;27;20054;-71
2021/12/21 13:06:18;;;;;;;5.07;3.30;;;1.90;99.90;;;;;;5132789;27;20037;-71
2021/12/21 13:08:45;;;;;;;7.13;3.10;;;1.90;99.90;;;;;;5119358;27;20076;-71
2021/12/21 13:11:12;;;;;;;6.00;3.05;;;2.00;99.90;;;;;;5131246;27;20102;-71
2021/12/21 13:13:44;;;;;;;5.05;3.05;;;2.00;99.90;;;;;;5133436;27;20027;-71
2021/12/21 13:16:21;;;;;;;12.32;3.05;;;2.00;99.90;;;;;;5133204;27;20035;-71
2021/12/21 13:18:48;;;;;;;6.60;2.70;;;2.00;99.90;;;;;;5132054;27;20058;-71
2021/12/21 13:21:36;;;;;;;7.68;2.80;;;1.90;99.90;;;;;;5131818;27;20418;-71
2021/12/21 13:24:11;;;;;;;6.45;3.20;;;1.90;99.90;;;;;;5133547;27;20476;-71
2021/12/21 13:26:51;;;;;;;9.63;3.55;;;1.90;99.90;;;;;;5133014;27;20026;-71
2021/12/21 13:29:21;;;;;;;8.43;3.08;;;1.90;99.90;;;;;;5132935;27;20027;-72
2021/12/21 13:31:51;;;;;;;6.00;2.92;;;1.80;99.90;;;;;;5133250;27;20023;-71
2021/12/21 13:34:18;;;;;;;9.60;3.03;;;1.80;99.90;;;;;;5132651;27;20035;-72
2021/12/21 13:36:49;;;;;;;4.18;2.38;;;1.80;99.90;;;;;;5133070;27;20080;-71
2021/12/21 13:39:21;;;;;;;4.97;2.38;;;1.80;99.90;;;;;;5125395;27;20016;-71
2021/12/21 13:41:50;;;;;;;7.57;3.28;;;1.90;99.90;;;;;;5125719;27;20020;-70
2021/12/21 13:44:31;;;;;;;6.60;2.88;;;1.80;99.90;;;;;;5122520;27;20039;-70
2021/12/21 13:47:14;;;;;;;6.68;3.15;;;1.80;99.90;;;;;;5132468;27;20122;-70
2021/12/21 13:50:15;;;;;;;4.95;2.90;;;1.80;99.90;;;;;;5133314;27;20436;-71
2021/12/21 13:52:58;;;;;;;11.88;3.85;;;1.80;99.90;;;;;;5133081;27;20072;-71
2021/12/21 13:55:33;;;;;;;12.48;3.25;;;1.80;99.90;;;;;;5132028;27;20471;-71